sensor_id;sensor_type;location;lat;lon;timestamp;P1;durP1;ratioP1;P2;durP2;ratioP2
11283;SDS011;5698;47.332;11.180;2022-07-06T00:00:08;5.70;;;3.40;;
11283;SDS011;5698;47.332;11.180;2022-07-06T00:02:36;4.57;;;3.10;;
11283;SDS011;5698;47.332;11.180;2022-07-06T00:05:03;3.17;;;2.97;;
11283;SDS011;5698;47.332;11.180;2022-07-06T00:07:30;3.13;;;2.93;;
11283;SDS011;5698;47.332;11.180;2022-07-06T00:09:59;4.17;;;2.73;;
11283;SDS011;5698;47.332;11.180;2022-07-06T00:12:26;3.50;;;2.90;;
11283;SDS011;5698;47.332;11.180;2022-07-06T00:14:53;3.30;;;2.93;;
11283;SDS011;5698;47.332;11.180;2022-07-06T00:17:20;2.90;;;2.70;;
11283;SDS011;5698;47.332;11.180;2022-07-06T00:19:47;3.00;;;2.80;;
11283;SDS011;5698;47.332;11.180;2022-07-06T00:22:14;3.43;;;3.10;;
11283;SDS011;5698;47.332;11.180;2022-07-06T00:24:41;4.23;;;2.90;;
11283;SDS011;5698;47.332;11.180;2022-07-06T00:27:09;3.30;;;3.00;;
11283;SDS011;5698;47.332;11.180;2022-07-06T00:29:36;3.30;;;3.00;;
11283;SDS011;5698;47.332;11.180;2022-07-06T00:32:08;3.83;;;2.60;;
11283;SDS011;5698;47.332;11.180;2022-07-06T00:34:35;2.97;;;2.70;;
11283;SDS011;5698;47.332;11.180;2022-07-06T00:37:04;3.77;;;2.80;;
11283;SDS011;5698;47.332;11.180;2022-07-06T00:39:31;4.43;;;3.13;;
11283;SDS011;5698;47.332;11.180;2022-07-06T00:41:59;3.37;;;2.73;;
11283;SDS011;5698;47.332;11.180;2022-07-06T00:44:27;3.33;;;2.47;;
11283;SDS011;5698;47.332;11.180;2022-07-06T00:46:56;3.37;;;2.77;;
11283;SDS011;5698;47.332;11.180;2022-07-06T00:49:23;3.23;;;2.50;;
11283;SDS011;5698;47.332;11.180;2022-07-06T00:52:07;2.67;;;2.40;;
11283;SDS011;5698;47.332;11.180;2022-07-06T00:54:34;3.70;;;2.57;;
11283;SDS011;5698;47.332;11.180;2022-07-06T00:57:03;3.27;;;2.17;;
11283;SDS011;5698;47.332;11.180;2022-07-06T00:59:31;3.60;;;2.47;;
11283;SDS011;5698;47.332;11.180;2022-07-06T01:01:58;4.57;;;2.60;;
11283;SDS011;5698;47.332;11.180;2022-07-06T01:04:25;2.70;;;2.50;;
11283;SDS011;5698;47.332;11.180;2022-07-06T01:06:53;4.53;;;3.03;;
11283;SDS011;5698;47.332;11.180;2022-07-06T01:09:20;2.97;;;2.77;;
11283;SDS011;5698;47.332;11.180;2022-07-06T01:11:47;2.87;;;2.40;;
11283;SDS011;5698;47.332;11.180;2022-07-06T01:14:14;2.80;;;2.60;;
11283;SDS011;5698;47.332;11.180;2022-07-06T01:16:44;2.83;;;2.53;;
11283;SDS011;5698;47.332;11.180;2022-07-06T01:19:11;3.63;;;2.57;;
11283;SDS011;5698;47.332;11.180;2022-07-06T01:21:39;2.57;;;2.37;;
11283;SDS011;5698;47.332;11.180;2022-07-06T01:24:07;2.67;;;2.47;;
11283;SDS011;5698;47.332;11.180;2022-07-06T01:26:34;2.30;;;2.20;;
11283;SDS011;5698;47.332;11.180;2022-07-06T01:29:01;2.50;;;2.30;;
11283;SDS011;5698;47.332;11.180;2022-07-06T01:31:28;4.17;;;2.97;;
11283;SDS011;5698;47.332;11.180;2022-07-06T01:33:55;4.23;;;2.63;;
11283;SDS011;5698;47.332;11.180;2022-07-06T01:36:24;2.60;;;2.40;;
11283;SDS011;5698;47.332;11.180;2022-07-06T01:38:53;3.20;;;2.53;;
11283;SDS011;5698;47.332;11.180;2022-07-06T01:41:23;2.67;;;2.47;;
11283;SDS011;5698;47.332;11.180;2022-07-06T01:43:51;2.10;;;2.00;;
11283;SDS011;5698;47.332;11.180;2022-07-06T01:46:18;2.30;;;2.20;;
11283;SDS011;5698;47.332;11.180;2022-07-06T01:48:45;4.27;;;2.30;;
11283;SDS011;5698;47.332;11.180;2022-07-06T01:51:12;2.70;;;2.50;;
11283;SDS011;5698;47.332;11.180;2022-07-06T01:53:40;2.63;;;2.30;;
11283;SDS011;5698;47.332;11.180;2022-07-06T01:56:09;2.53;;;2.30;;
11283;SDS011;5698;47.332;11.180;2022-07-06T01:58:37;2.37;;;2.17;;
11283;SDS011;5698;47.332;11.180;2022-07-06T02:01:07;3.17;;;2.73;;
11283;SDS011;5698;47.332;11.180;2022-07-06T02:03:35;2.80;;;2.60;;
11283;SDS011;5698;47.332;11.180;2022-07-06T02:06:02;3.47;;;2.70;;
11283;SDS011;5698;47.332;11.180;2022-07-06T02:08:30;4.33;;;2.93;;
11283;SDS011;5698;47.332;11.180;2022-07-06T02:10:57;3.00;;;2.70;;
11283;SDS011;5698;47.332;11.180;2022-07-06T02:13:26;2.50;;;2.30;;
11283;SDS011;5698;47.332;11.180;2022-07-06T02:15:53;2.50;;;2.30;;
11283;SDS011;5698;47.332;11.180;2022-07-06T02:18:20;2.40;;;2.20;;
11283;SDS011;5698;47.332;11.180;2022-07-06T02:20:47;2.23;;;2.10;;
11283;SDS011;5698;47.332;11.180;2022-07-06T02:23:14;4.43;;;2.30;;
11283;SDS011;5698;47.332;11.180;2022-07-06T02:25:41;2.70;;;2.13;;
11283;SDS011;5698;47.332;11.180;2022-07-06T02:28:08;2.40;;;2.20;;
11283;SDS011;5698;47.332;11.180;2022-07-06T02:30:36;3.97;;;2.13;;
11283;SDS011;5698;47.332;11.180;2022-07-06T02:33:03;4.53;;;1.90;;
11283;SDS011;5698;47.332;11.180;2022-07-06T02:35:30;2.30;;;2.10;;
11283;SDS011;5698;47.332;11.180;2022-07-06T02:37:58;2.37;;;2.17;;
11283;SDS011;5698;47.332;11.180;2022-07-06T02:40:25;3.77;;;1.93;;
11283;SDS011;5698;47.332;11.180;2022-07-06T02:42:52;3.40;;;2.40;;
11283;SDS011;5698;47.332;11.180;2022-07-06T02:45:19;2.63;;;2.40;;
11283;SDS011;5698;47.332;11.180;2022-07-06T02:47:47;3.37;;;1.90;;
11283;SDS011;5698;47.332;11.180;2022-07-06T02:50:16;2.80;;;2.37;;
11283;SDS011;5698;47.332;11.180;2022-07-06T02:52:43;3.20;;;1.90;;
11283;SDS011;5698;47.332;11.180;2022-07-06T02:55:10;1.87;;;1.77;;
11283;SDS011;5698;47.332;11.180;2022-07-06T02:57:37;2.40;;;1.70;;
11283;SDS011;5698;47.332;11.180;2022-07-06T03:00:04;2.00;;;1.90;;
11283;SDS011;5698;47.332;11.180;2022-07-06T03:02:32;2.23;;;1.97;;
11283;SDS011;5698;47.332;11.180;2022-07-06T03:05:01;2.20;;;2.00;;
11283;SDS011;5698;47.332;11.180;2022-07-06T03:07:28;2.83;;;2.27;;
11283;SDS011;5698;47.332;11.180;2022-07-06T03:09:55;3.20;;;2.00;;
11283;SDS011;5698;47.332;11.180;2022-07-06T03:12:22;2.30;;;2.10;;
11283;SDS011;5698;47.332;11.180;2022-07-06T03:14:49;2.53;;;2.20;;
11283;SDS011;5698;47.332;11.180;2022-07-06T03:17:16;2.97;;;2.20;;
11283;SDS011;5698;47.332;11.180;2022-07-06T03:19:43;2.67;;;2.47;;
11283;SDS011;5698;47.332;11.180;2022-07-06T03:22:12;2.53;;;2.33;;
11283;SDS011;5698;47.332;11.180;2022-07-06T03:24:39;2.70;;;2.20;;
11283;SDS011;5698;47.332;11.180;2022-07-06T03:27:06;2.90;;;2.57;;
11283;SDS011;5698;47.332;11.180;2022-07-06T03:29:33;2.70;;;2.50;;
11283;SDS011;5698;47.332;11.180;2022-07-06T03:32:00;6.27;;;2.97;;
11283;SDS011;5698;47.332;11.180;2022-07-06T03:34:27;3.50;;;2.80;;
11283;SDS011;5698;47.332;11.180;2022-07-06T03:36:54;3.10;;;2.90;;
11283;SDS011;5698;47.332;11.180;2022-07-06T03:39:22;2.47;;;2.37;;
11283;SDS011;5698;47.332;11.180;2022-07-06T03:41:49;3.43;;;2.53;;
11283;SDS011;5698;47.332;11.180;2022-07-06T03:44:16;2.63;;;2.40;;
11283;SDS011;5698;47.332;11.180;2022-07-06T03:46:43;2.57;;;2.33;;
11283;SDS011;5698;47.332;11.180;2022-07-06T03:49:10;2.73;;;2.53;;
11283;SDS011;5698;47.332;11.180;2022-07-06T03:51:37;2.90;;;2.63;;
11283;SDS011;5698;47.332;11.180;2022-07-06T03:54:05;2.53;;;2.33;;
11283;SDS011;5698;47.332;11.180;2022-07-06T03:56:33;3.10;;;2.30;;
11283;SDS011;5698;47.332;11.180;2022-07-06T03:59:03;2.60;;;2.40;;
11283;SDS011;5698;47.332;11.180;2022-07-06T04:01:30;3.10;;;2.13;;
11283;SDS011;5698;47.332;11.180;2022-07-06T04:03:57;2.53;;;2.33;;
11283;SDS011;5698;47.332;11.180;2022-07-06T04:06:24;2.60;;;2.40;;
11283;SDS011;5698;47.332;11.180;2022-07-06T04:08:51;2.33;;;2.23;;
11283;SDS011;5698;47.332;11.180;2022-07-06T04:11:19;2.03;;;1.93;;
11283;SDS011;5698;47.332;11.180;2022-07-06T04:13:47;2.93;;;2.10;;
11283;SDS011;5698;47.332;11.180;2022-07-06T04:16:14;2.37;;;2.00;;
11283;SDS011;5698;47.332;11.180;2022-07-06T04:18:41;3.13;;;2.13;;
11283;SDS011;5698;47.332;11.180;2022-07-06T04:21:08;2.43;;;2.23;;
11283;SDS011;5698;47.332;11.180;2022-07-06T04:23:35;3.83;;;2.20;;
11283;SDS011;5698;47.332;11.180;2022-07-06T04:26:02;2.60;;;2.40;;
11283;SDS011;5698;47.332;11.180;2022-07-06T04:28:29;3.00;;;2.80;;
11283;SDS011;5698;47.332;11.180;2022-07-06T04:30:57;3.30;;;2.20;;
11283;SDS011;5698;47.332;11.180;2022-07-06T04:33:24;2.10;;;2.00;;
11283;SDS011;5698;47.332;11.180;2022-07-06T04:35:51;2.87;;;2.10;;
11283;SDS011;5698;47.332;11.180;2022-07-06T04:38:18;2.40;;;2.30;;
11283;SDS011;5698;47.332;11.180;2022-07-06T04:40:46;3.40;;;2.50;;
11283;SDS011;5698;47.332;11.180;2022-07-06T04:43:13;2.20;;;2.00;;
11283;SDS011;5698;47.332;11.180;2022-07-06T04:45:40;3.30;;;1.90;;
11283;SDS011;5698;47.332;11.180;2022-07-06T04:48:08;3.37;;;2.30;;
11283;SDS011;5698;47.332;11.180;2022-07-06T04:50:35;2.70;;;2.30;;
11283;SDS011;5698;47.332;11.180;2022-07-06T04:53:02;2.50;;;2.30;;
11283;SDS011;5698;47.332;11.180;2022-07-06T04:55:29;3.20;;;2.07;;
11283;SDS011;5698;47.332;11.180;2022-07-06T04:57:56;2.17;;;1.70;;
11283;SDS011;5698;47.332;11.180;2022-07-06T05:00:23;2.70;;;2.50;;
11283;SDS011;5698;47.332;11.180;2022-07-06T05:02:50;2.40;;;2.20;;
11283;SDS011;5698;47.332;11.180;2022-07-06T05:05:19;2.70;;;2.10;;
11283;SDS011;5698;47.332;11.180;2022-07-06T05:07:46;2.73;;;2.10;;
11283;SDS011;5698;47.332;11.180;2022-07-06T05:10:13;2.10;;;1.93;;
11283;SDS011;5698;47.332;11.180;2022-07-06T05:12:40;2.17;;;2.07;;
11283;SDS011;5698;47.332;11.180;2022-07-06T05:15:07;3.07;;;2.10;;
11283;SDS011;5698;47.332;11.180;2022-07-06T05:17:35;3.07;;;2.23;;
11283;SDS011;5698;47.332;11.180;2022-07-06T05:20:02;4.13;;;1.73;;
11283;SDS011;5698;47.332;11.180;2022-07-06T05:22:32;2.43;;;2.23;;
11283;SDS011;5698;47.332;11.180;2022-07-06T05:24:59;5.10;;;2.13;;
11283;SDS011;5698;47.332;11.180;2022-07-06T05:27:26;2.53;;;2.33;;
11283;SDS011;5698;47.332;11.180;2022-07-06T05:29:53;2.20;;;2.00;;
11283;SDS011;5698;47.332;11.180;2022-07-06T05:32:19;2.67;;;1.87;;
11283;SDS011;5698;47.332;11.180;2022-07-06T05:34:46;1.97;;;1.80;;
11283;SDS011;5698;47.332;11.180;2022-07-06T05:37:14;3.33;;;2.00;;
11283;SDS011;5698;47.332;11.180;2022-07-06T05:39:42;2.67;;;2.47;;
11283;SDS011;5698;47.332;11.180;2022-07-06T05:42:10;2.50;;;2.37;;
11283;SDS011;5698;47.332;11.180;2022-07-06T05:44:37;5.23;;;2.57;;
11283;SDS011;5698;47.332;11.180;2022-07-06T05:47:04;3.93;;;3.07;;
11283;SDS011;5698;47.332;11.180;2022-07-06T05:49:48;3.03;;;2.57;;
11283;SDS011;5698;47.332;11.180;2022-07-06T05:52:33;3.20;;;3.00;;
11283;SDS011;5698;47.332;11.180;2022-07-06T05:55:02;3.07;;;2.77;;
11283;SDS011;5698;47.332;11.180;2022-07-06T05:57:29;2.70;;;2.50;;
11283;SDS011;5698;47.332;11.180;2022-07-06T05:59:56;3.27;;;3.00;;
11283;SDS011;5698;47.332;11.180;2022-07-06T06:02:23;3.73;;;3.07;;
11283;SDS011;5698;47.332;11.180;2022-07-06T06:04:50;3.53;;;3.23;;
11283;SDS011;5698;47.332;11.180;2022-07-06T06:07:17;3.70;;;3.40;;
11283;SDS011;5698;47.332;11.180;2022-07-06T06:09:44;3.37;;;3.07;;
11283;SDS011;5698;47.332;11.180;2022-07-06T06:12:12;3.00;;;2.67;;
11283;SDS011;5698;47.332;11.180;2022-07-06T06:14:39;3.63;;;2.90;;
11283;SDS011;5698;47.332;11.180;2022-07-06T06:17:06;3.27;;;2.77;;
11283;SDS011;5698;47.332;11.180;2022-07-06T06:19:35;4.07;;;3.10;;
11283;SDS011;5698;47.332;11.180;2022-07-06T06:22:02;3.07;;;2.77;;
11283;SDS011;5698;47.332;11.180;2022-07-06T06:24:30;2.97;;;2.47;;
11283;SDS011;5698;47.332;11.180;2022-07-06T06:26:57;4.70;;;2.33;;
11283;SDS011;5698;47.332;11.180;2022-07-06T06:29:26;2.27;;;2.10;;
11283;SDS011;5698;47.332;11.180;2022-07-06T06:31:53;2.20;;;2.10;;
11283;SDS011;5698;47.332;11.180;2022-07-06T06:34:20;3.53;;;2.43;;
11283;SDS011;5698;47.332;11.180;2022-07-06T06:36:47;2.27;;;2.10;;
11283;SDS011;5698;47.332;11.180;2022-07-06T06:39:15;2.33;;;2.13;;
11283;SDS011;5698;47.332;11.180;2022-07-06T06:41:42;2.83;;;2.63;;
11283;SDS011;5698;47.332;11.180;2022-07-06T06:44:09;2.30;;;2.10;;
11283;SDS011;5698;47.332;11.180;2022-07-06T06:46:37;3.57;;;2.33;;
11283;SDS011;5698;47.332;11.180;2022-07-06T06:49:04;3.37;;;2.40;;
11283;SDS011;5698;47.332;11.180;2022-07-06T06:51:31;2.47;;;2.27;;
11283;SDS011;5698;47.332;11.180;2022-07-06T06:53:59;4.03;;;2.60;;
11283;SDS011;5698;47.332;11.180;2022-07-06T06:56:26;2.97;;;2.10;;
11283;SDS011;5698;47.332;11.180;2022-07-06T06:58:53;2.80;;;2.60;;
11283;SDS011;5698;47.332;11.180;2022-07-06T07:01:20;3.90;;;2.67;;
11283;SDS011;5698;47.332;11.180;2022-07-06T07:03:49;2.70;;;2.50;;
11283;SDS011;5698;47.332;11.180;2022-07-06T07:06:16;2.40;;;2.20;;
11283;SDS011;5698;47.332;11.180;2022-07-06T07:08:43;4.43;;;2.60;;
11283;SDS011;5698;47.332;11.180;2022-07-06T07:11:10;1.97;;;1.87;;
11283;SDS011;5698;47.332;11.180;2022-07-06T07:13:37;2.30;;;2.10;;
11283;SDS011;5698;47.332;11.180;2022-07-06T07:16:05;6.00;;;2.70;;
11283;SDS011;5698;47.332;11.180;2022-07-06T07:18:32;2.43;;;2.23;;
11283;SDS011;5698;47.332;11.180;2022-07-06T07:21:00;3.50;;;2.33;;
11283;SDS011;5698;47.332;11.180;2022-07-06T07:23:27;2.97;;;2.10;;
11283;SDS011;5698;47.332;11.180;2022-07-06T07:25:55;2.67;;;1.90;;
11283;SDS011;5698;47.332;11.180;2022-07-06T07:28:22;2.90;;;2.00;;
11283;SDS011;5698;47.332;11.180;2022-07-06T07:30:49;2.50;;;1.93;;
11283;SDS011;5698;47.332;11.180;2022-07-06T07:33:16;2.20;;;2.00;;
11283;SDS011;5698;47.332;11.180;2022-07-06T07:35:43;2.10;;;1.90;;
11283;SDS011;5698;47.332;11.180;2022-07-06T07:38:12;2.30;;;2.00;;
11283;SDS011;5698;47.332;11.180;2022-07-06T07:40:39;2.50;;;2.00;;
11283;SDS011;5698;47.332;11.180;2022-07-06T07:43:06;2.60;;;1.80;;
11283;SDS011;5698;47.332;11.180;2022-07-06T07:45:33;1.93;;;1.83;;
11283;SDS011;5698;47.332;11.180;2022-07-06T07:48:00;2.20;;;1.73;;
11283;SDS011;5698;47.332;11.180;2022-07-06T07:50:27;2.10;;;1.63;;
11283;SDS011;5698;47.332;11.180;2022-07-06T07:52:54;2.00;;;1.60;;
11283;SDS011;5698;47.332;11.180;2022-07-06T07:55:23;1.77;;;1.47;;
11283;SDS011;5698;47.332;11.180;2022-07-06T07:57:50;2.53;;;1.60;;
11283;SDS011;5698;47.332;11.180;2022-07-06T08:00:17;2.03;;;1.20;;
11283;SDS011;5698;47.332;11.180;2022-07-06T08:02:46;1.20;;;1.10;;
11283;SDS011;5698;47.332;11.180;2022-07-06T08:05:13;2.53;;;1.10;;
11283;SDS011;5698;47.332;11.180;2022-07-06T08:07:41;1.53;;;1.20;;
11283;SDS011;5698;47.332;11.180;2022-07-06T08:10:08;2.17;;;1.20;;
11283;SDS011;5698;47.332;11.180;2022-07-06T08:12:37;2.97;;;1.67;;
11283;SDS011;5698;47.332;11.180;2022-07-06T08:15:05;2.37;;;1.20;;
11283;SDS011;5698;47.332;11.180;2022-07-06T08:17:32;2.33;;;1.17;;
11283;SDS011;5698;47.332;11.180;2022-07-06T08:19:59;1.77;;;1.20;;
11283;SDS011;5698;47.332;11.180;2022-07-06T08:22:27;1.47;;;1.10;;
11283;SDS011;5698;47.332;11.180;2022-07-06T08:24:55;2.10;;;1.10;;
11283;SDS011;5698;47.332;11.180;2022-07-06T08:27:23;1.83;;;1.17;;
11283;SDS011;5698;47.332;11.180;2022-07-06T08:29:51;3.60;;;1.10;;
11283;SDS011;5698;47.332;11.180;2022-07-06T08:32:18;4.83;;;1.70;;
11283;SDS011;5698;47.332;11.180;2022-07-06T08:34:46;1.90;;;0.97;;
11283;SDS011;5698;47.332;11.180;2022-07-06T08:37:13;1.83;;;1.10;;
11283;SDS011;5698;47.332;11.180;2022-07-06T08:39:40;2.93;;;1.17;;
11283;SDS011;5698;47.332;11.180;2022-07-06T08:42:07;2.93;;;1.50;;
11283;SDS011;5698;47.332;11.180;2022-07-06T08:44:35;2.30;;;1.27;;
11283;SDS011;5698;47.332;11.180;2022-07-06T08:47:05;1.70;;;1.20;;
11283;SDS011;5698;47.332;11.180;2022-07-06T08:49:33;2.30;;;1.20;;
11283;SDS011;5698;47.332;11.180;2022-07-06T08:52:02;2.53;;;1.37;;
11283;SDS011;5698;47.332;11.180;2022-07-06T08:54:30;1.93;;;1.10;;
11283;SDS011;5698;47.332;11.180;2022-07-06T08:56:58;2.50;;;1.10;;
11283;SDS011;5698;47.332;11.180;2022-07-06T08:59:25;3.63;;;1.10;;
11283;SDS011;5698;47.332;11.180;2022-07-06T09:01:52;1.60;;;0.93;;
11283;SDS011;5698;47.332;11.180;2022-07-06T09:04:22;0.97;;;0.93;;
11283;SDS011;5698;47.332;11.180;2022-07-06T09:06:50;3.60;;;1.10;;
11283;SDS011;5698;47.332;11.180;2022-07-06T09:09:19;1.30;;;0.80;;
11283;SDS011;5698;47.332;11.180;2022-07-06T09:11:48;1.20;;;1.10;;
11283;SDS011;5698;47.332;11.180;2022-07-06T09:14:16;0.90;;;0.90;;
11283;SDS011;5698;47.332;11.180;2022-07-06T09:16:44;1.47;;;1.10;;
11283;SDS011;5698;47.332;11.180;2022-07-06T09:19:12;1.87;;;0.90;;
11283;SDS011;5698;47.332;11.180;2022-07-06T09:21:41;2.87;;;0.90;;
11283;SDS011;5698;47.332;11.180;2022-07-06T09:24:09;1.07;;;0.97;;
11283;SDS011;5698;47.332;11.180;2022-07-06T09:26:37;2.60;;;1.13;;
11283;SDS011;5698;47.332;11.180;2022-07-06T09:29:05;1.60;;;1.00;;
11283;SDS011;5698;47.332;11.180;2022-07-06T09:31:32;0.97;;;0.90;;
11283;SDS011;5698;47.332;11.180;2022-07-06T09:34:00;2.63;;;1.00;;
11283;SDS011;5698;47.332;11.180;2022-07-06T09:36:36;1.50;;;1.00;;
11283;SDS011;5698;47.332;11.180;2022-07-06T09:39:16;0.80;;;0.80;;
11283;SDS011;5698;47.332;11.180;2022-07-06T09:41:45;2.17;;;1.03;;
11283;SDS011;5698;47.332;11.180;2022-07-06T09:44:12;1.83;;;1.00;;
11283;SDS011;5698;47.332;11.180;2022-07-06T09:46:40;1.73;;;1.33;;
11283;SDS011;5698;47.332;11.180;2022-07-06T09:49:07;2.83;;;1.23;;
11283;SDS011;5698;47.332;11.180;2022-07-06T09:51:35;2.63;;;1.00;;
11283;SDS011;5698;47.332;11.180;2022-07-06T09:54:07;1.47;;;1.00;;
11283;SDS011;5698;47.332;11.180;2022-07-06T09:56:37;1.93;;;0.90;;
11283;SDS011;5698;47.332;11.180;2022-07-06T09:59:08;3.40;;;1.10;;
11283;SDS011;5698;47.332;11.180;2022-07-06T10:01:35;2.63;;;1.03;;
11283;SDS011;5698;47.332;11.180;2022-07-06T10:04:03;1.27;;;0.90;;
11283;SDS011;5698;47.332;11.180;2022-07-06T10:06:31;2.80;;;1.17;;
11283;SDS011;5698;47.332;11.180;2022-07-06T10:08:58;1.27;;;1.00;;
11283;SDS011;5698;47.332;11.180;2022-07-06T10:11:27;0.90;;;0.90;;
11283;SDS011;5698;47.332;11.180;2022-07-06T10:13:55;1.13;;;0.90;;
11283;SDS011;5698;47.332;11.180;2022-07-06T10:16:23;2.00;;;1.00;;
11283;SDS011;5698;47.332;11.180;2022-07-06T10:18:51;2.90;;;1.17;;
11283;SDS011;5698;47.332;11.180;2022-07-06T10:21:19;1.73;;;1.10;;
11283;SDS011;5698;47.332;11.180;2022-07-06T10:23:48;2.63;;;1.30;;
11283;SDS011;5698;47.332;11.180;2022-07-06T10:26:16;1.37;;;0.90;;
11283;SDS011;5698;47.332;11.180;2022-07-06T10:28:45;1.00;;;0.90;;
11283;SDS011;5698;47.332;11.180;2022-07-06T10:31:13;1.33;;;1.10;;
11283;SDS011;5698;47.332;11.180;2022-07-06T10:33:42;1.77;;;1.10;;
11283;SDS011;5698;47.332;11.180;2022-07-06T10:36:10;1.43;;;1.00;;
11283;SDS011;5698;47.332;11.180;2022-07-06T10:38:37;2.10;;;0.97;;
11283;SDS011;5698;47.332;11.180;2022-07-06T10:41:07;4.33;;;0.93;;
11283;SDS011;5698;47.332;11.180;2022-07-06T10:43:34;1.30;;;1.03;;
11283;SDS011;5698;47.332;11.180;2022-07-06T10:46:07;4.00;;;1.40;;
11283;SDS011;5698;47.332;11.180;2022-07-06T10:48:35;1.00;;;0.80;;
11283;SDS011;5698;47.332;11.180;2022-07-06T10:51:03;1.13;;;0.77;;
11283;SDS011;5698;47.332;11.180;2022-07-06T10:53:31;1.27;;;1.10;;
11283;SDS011;5698;47.332;11.180;2022-07-06T10:56:00;1.63;;;0.90;;
11283;SDS011;5698;47.332;11.180;2022-07-06T10:58:36;2.57;;;0.97;;
11283;SDS011;5698;47.332;11.180;2022-07-06T11:01:09;1.20;;;0.90;;
11283;SDS011;5698;47.332;11.180;2022-07-06T11:03:37;4.00;;;1.30;;
11283;SDS011;5698;47.332;11.180;2022-07-06T11:06:09;1.47;;;1.10;;
11283;SDS011;5698;47.332;11.180;2022-07-06T11:08:41;2.03;;;0.77;;
11283;SDS011;5698;47.332;11.180;2022-07-06T11:11:13;1.63;;;0.90;;
11283;SDS011;5698;47.332;11.180;2022-07-06T11:13:42;1.33;;;0.87;;
11283;SDS011;5698;47.332;11.180;2022-07-06T11:16:26;1.30;;;0.83;;
11283;SDS011;5698;47.332;11.180;2022-07-06T11:18:59;2.00;;;0.97;;
11283;SDS011;5698;47.332;11.180;2022-07-06T11:21:35;3.97;;;1.07;;
11283;SDS011;5698;47.332;11.180;2022-07-06T11:24:05;0.93;;;0.83;;
11283;SDS011;5698;47.332;11.180;2022-07-06T11:26:33;1.07;;;0.90;;
11283;SDS011;5698;47.332;11.180;2022-07-06T11:29:02;1.97;;;1.03;;
11283;SDS011;5698;47.332;11.180;2022-07-06T11:31:36;1.67;;;0.90;;
11283;SDS011;5698;47.332;11.180;2022-07-06T11:34:04;1.00;;;0.90;;
11283;SDS011;5698;47.332;11.180;2022-07-06T11:36:32;1.50;;;1.00;;
11283;SDS011;5698;47.332;11.180;2022-07-06T11:38:59;1.10;;;1.00;;
11283;SDS011;5698;47.332;11.180;2022-07-06T11:41:26;1.73;;;0.93;;
11283;SDS011;5698;47.332;11.180;2022-07-06T11:43:53;2.70;;;0.90;;
11283;SDS011;5698;47.332;11.180;2022-07-06T11:46:21;3.10;;;1.03;;
11283;SDS011;5698;47.332;11.180;2022-07-06T11:48:51;1.77;;;1.00;;
11283;SDS011;5698;47.332;11.180;2022-07-06T11:51:19;1.77;;;1.03;;
11283;SDS011;5698;47.332;11.180;2022-07-06T11:53:47;0.90;;;0.70;;
11283;SDS011;5698;47.332;11.180;2022-07-06T11:56:17;1.33;;;1.03;;
11283;SDS011;5698;47.332;11.180;2022-07-06T11:58:46;1.53;;;1.10;;
11283;SDS011;5698;47.332;11.180;2022-07-06T12:01:16;1.97;;;0.87;;
11283;SDS011;5698;47.332;11.180;2022-07-06T12:03:43;1.20;;;1.10;;
11283;SDS011;5698;47.332;11.180;2022-07-06T12:06:16;0.87;;;0.80;;
11283;SDS011;5698;47.332;11.180;2022-07-06T12:08:44;2.87;;;0.83;;
11283;SDS011;5698;47.332;11.180;2022-07-06T12:11:16;1.20;;;1.00;;
11283;SDS011;5698;47.332;11.180;2022-07-06T12:13:47;2.53;;;1.00;;
11283;SDS011;5698;47.332;11.180;2022-07-06T12:16:15;3.30;;;1.00;;
11283;SDS011;5698;47.332;11.180;2022-07-06T12:18:42;0.73;;;0.73;;
11283;SDS011;5698;47.332;11.180;2022-07-06T12:21:11;2.20;;;0.90;;
11283;SDS011;5698;47.332;11.180;2022-07-06T12:23:43;2.77;;;1.00;;
11283;SDS011;5698;47.332;11.180;2022-07-06T12:26:12;1.37;;;0.80;;
11283;SDS011;5698;47.332;11.180;2022-07-06T12:28:40;2.60;;;1.10;;
11283;SDS011;5698;47.332;11.180;2022-07-06T12:31:08;3.90;;;1.00;;
11283;SDS011;5698;47.332;11.180;2022-07-06T12:33:36;1.00;;;0.90;;
11283;SDS011;5698;47.332;11.180;2022-07-06T12:36:12;1.73;;;0.90;;
11283;SDS011;5698;47.332;11.180;2022-07-06T12:38:46;2.40;;;0.90;;
11283;SDS011;5698;47.332;11.180;2022-07-06T12:44:05;1.73;;;1.00;;
11283;SDS011;5698;47.332;11.180;2022-07-06T12:46:34;2.23;;;0.93;;
11283;SDS011;5698;47.332;11.180;2022-07-06T12:49:03;3.40;;;0.93;;
11283;SDS011;5698;47.332;11.180;2022-07-06T12:51:54;1.90;;;0.90;;
11283;SDS011;5698;47.332;11.180;2022-07-06T12:54:24;1.30;;;1.20;;
11283;SDS011;5698;47.332;11.180;2022-07-06T12:56:56;1.87;;;1.00;;
11283;SDS011;5698;47.332;11.180;2022-07-06T12:59:35;3.03;;;0.90;;
11283;SDS011;5698;47.332;11.180;2022-07-06T13:02:04;2.27;;;0.90;;
11283;SDS011;5698;47.332;11.180;2022-07-06T13:04:33;1.40;;;1.10;;
11283;SDS011;5698;47.332;11.180;2022-07-06T13:07:00;1.13;;;0.90;;
11283;SDS011;5698;47.332;11.180;2022-07-06T13:09:29;1.53;;;0.80;;
11283;SDS011;5698;47.332;11.180;2022-07-06T13:11:57;1.90;;;1.00;;
11283;SDS011;5698;47.332;11.180;2022-07-06T13:14:24;1.10;;;1.00;;
11283;SDS011;5698;47.332;11.180;2022-07-06T13:16:51;1.30;;;1.10;;
11283;SDS011;5698;47.332;11.180;2022-07-06T13:19:19;5.03;;;1.07;;
11283;SDS011;5698;47.332;11.180;2022-07-06T13:21:46;1.93;;;0.90;;
11283;SDS011;5698;47.332;11.180;2022-07-06T13:24:13;4.07;;;1.10;;
11283;SDS011;5698;47.332;11.180;2022-07-06T13:26:41;1.93;;;1.27;;
11283;SDS011;5698;47.332;11.180;2022-07-06T13:29:09;2.97;;;1.20;;
11283;SDS011;5698;47.332;11.180;2022-07-06T13:31:37;1.57;;;1.20;;
11283;SDS011;5698;47.332;11.180;2022-07-06T13:34:05;2.53;;;1.07;;
11283;SDS011;5698;47.332;11.180;2022-07-06T13:36:33;2.37;;;1.20;;
11283;SDS011;5698;47.332;11.180;2022-07-06T13:39:00;1.43;;;1.00;;
11283;SDS011;5698;47.332;11.180;2022-07-06T13:41:27;3.17;;;1.10;;
11283;SDS011;5698;47.332;11.180;2022-07-06T13:43:56;0.90;;;0.90;;
11283;SDS011;5698;47.332;11.180;2022-07-06T13:46:23;2.60;;;1.13;;
11283;SDS011;5698;47.332;11.180;2022-07-06T13:48:51;1.63;;;1.20;;
11283;SDS011;5698;47.332;11.180;2022-07-06T13:51:19;1.50;;;1.20;;
11283;SDS011;5698;47.332;11.180;2022-07-06T13:53:46;3.47;;;0.97;;
11283;SDS011;5698;47.332;11.180;2022-07-06T13:56:13;1.80;;;1.27;;
11283;SDS011;5698;47.332;11.180;2022-07-06T13:58:40;1.90;;;1.00;;
11283;SDS011;5698;47.332;11.180;2022-07-06T14:01:09;1.93;;;1.10;;
11283;SDS011;5698;47.332;11.180;2022-07-06T14:03:36;2.83;;;1.00;;
11283;SDS011;5698;47.332;11.180;2022-07-06T14:06:04;2.37;;;1.13;;
11283;SDS011;5698;47.332;11.180;2022-07-06T14:08:33;1.30;;;1.10;;
11283;SDS011;5698;47.332;11.180;2022-07-06T14:11:00;2.47;;;1.23;;
11283;SDS011;5698;47.332;11.180;2022-07-06T14:13:27;3.03;;;1.17;;
11283;SDS011;5698;47.332;11.180;2022-07-06T14:15:54;3.20;;;1.10;;
11283;SDS011;5698;47.332;11.180;2022-07-06T14:18:23;2.63;;;1.40;;
11283;SDS011;5698;47.332;11.180;2022-07-06T14:20:51;1.80;;;1.10;;
11283;SDS011;5698;47.332;11.180;2022-07-06T14:23:19;2.80;;;1.37;;
11283;SDS011;5698;47.332;11.180;2022-07-06T14:25:47;1.47;;;0.90;;
11283;SDS011;5698;47.332;11.180;2022-07-06T14:28:15;1.67;;;1.10;;
11283;SDS011;5698;47.332;11.180;2022-07-06T14:30:43;2.67;;;1.03;;
11283;SDS011;5698;47.332;11.180;2022-07-06T14:33:11;1.97;;;1.10;;
11283;SDS011;5698;47.332;11.180;2022-07-06T14:35:43;2.03;;;1.20;;
11283;SDS011;5698;47.332;11.180;2022-07-06T14:38:12;2.40;;;1.20;;
11283;SDS011;5698;47.332;11.180;2022-07-06T14:40:39;4.60;;;1.27;;
11283;SDS011;5698;47.332;11.180;2022-07-06T14:43:06;2.53;;;1.50;;
11283;SDS011;5698;47.332;11.180;2022-07-06T14:45:34;1.80;;;1.20;;
11283;SDS011;5698;47.332;11.180;2022-07-06T14:48:01;2.13;;;1.37;;
11283;SDS011;5698;47.332;11.180;2022-07-06T14:50:28;2.03;;;1.30;;
11283;SDS011;5698;47.332;11.180;2022-07-06T14:52:56;2.13;;;1.30;;
11283;SDS011;5698;47.332;11.180;2022-07-06T14:55:23;4.50;;;1.50;;